Time;durP1;ratioP1;P1;durP2;ratioP2;P2;SDS_P1;SDS_P2;PMS_P1;PMS_P2;Temp;Humidity;BMP_temperature;BMP_pressure;BME280_temperature;BME280_humidity;BME280_pressure;Samples;Min_cycle;Max_cycle;Signal;HPM_P1;HPM_P2
2023/12/14 00:01:14;;;;;;;7.78;5.65;;;;;;;-2.68;100.00;101196.22;5054023;28;20040;-68
2023/12/14 00:03:46;;;;;;;10.27;6.07;;;;;;;-2.63;100.00;101207.28;5053901;28;20098;-66
2023/12/14 00:06:13;;;;;;;9.57;7.32;;;;;;;-3.00;100.00;101155.94;5054940;28;20483;-69
2023/12/14 00:08:39;;;;;;;9.75;6.03;;;;;;;-2.68;100.00;101200.59;5053572;28;20063;-68
2023/12/14 00:11:11;;;;;;;11.00;6.75;;;;;;;-2.71;100.00;101198.13;5053158;28;20049;-67
2023/12/14 00:13:37;;;;;;;11.52;6.38;;;;;;;-2.78;100.00;101199.31;5053313;28;20488;-65
2023/12/14 00:16:04;;;;;;;12.67;7.17;;;;;;;-2.77;100.00;101208.81;5053741;28;20051;-69
2023/12/14 00:18:29;;;;;;;12.33;7.43;;;;;;;-2.69;100.00;101219.75;5053324;28;20353;-67
2023/12/14 00:20:56;;;;;;;10.17;6.83;;;;;;;-2.66;100.00;101220.47;5051688;28;21351;-68
2023/12/14 00:23:22;;;;;;;10.43;6.57;;;;;;;-2.74;100.00;101206.06;5053392;28;20037;-67
2023/12/14 00:25:47;;;;;;;12.93;6.60;;;;;;;-2.68;100.00;101214.47;5053722;28;20067;-67
2023/12/14 00:28:13;;;;;;;13.23;6.90;;;;;;;-2.53;100.00;101233.81;5053600;28;20048;-68
2023/12/14 00:30:39;;;;;;;17.40;7.77;;;;;;;-2.45;100.00;101234.31;5053942;28;20053;-68
2023/12/14 00:33:05;;;;;;;12.83;8.10;;;;;;;-2.41;100.00;101230.66;5053080;28;20033;-70
2023/12/14 00:35:30;;;;;;;18.17;9.30;;;;;;;-2.70;100.00;101194.59;5053751;28;20043;-66
2023/12/14 00:37:56;;;;;;;14.37;7.93;;;;;;;-2.65;100.00;101218.69;5053444;28;20028;-69
2023/12/14 00:40:22;;;;;;;11.13;7.40;;;;;;;-2.76;100.00;101215.72;5053290;28;20049;-69
2023/12/14 00:42:47;;;;;;;13.40;7.67;;;;;;;-2.66;100.00;101243.09;5052649;28;20043;-67
2023/12/14 00:45:13;;;;;;;13.00;8.00;;;;;;;-2.72;100.00;101225.09;5067944;28;20485;-71
2023/12/14 00:47:38;;;;;;;12.10;7.40;;;;;;;-2.57;100.00;101247.91;5051785;28;20033;-67
2023/12/14 00:50:04;;;;;;;9.33;6.80;;;;;;;-2.60;100.00;101240.22;5053081;28;20468;-70
2023/12/14 00:52:30;;;;;;;11.25;6.75;;;;;;;-2.69;100.00;101227.56;5052710;28;20041;-69
2023/12/14 00:54:56;;;;;;;9.90;7.60;;;;;;;-2.47;100.00;101243.97;5051482;28;20094;-67
2023/12/14 00:57:22;;;;;;;15.57;7.70;;;;;;;-2.58;100.00;101217.53;5051666;28;20037;-68
2023/12/14 00:59:47;;;;;;;13.63;7.17;;;;;;;-2.43;100.00;101240.31;5053520;28;20773;-71
2023/12/14 01:02:13;;;;;;;13.93;8.07;;;;;;;-2.97;100.00;101167.97;5051191;28;20043;-68
2023/12/14 01:04:39;;;;;;;11.27;8.13;;;;;;;-2.62;100.00;101218.56;5052405;28;20549;-67
2023/12/14 01:07:04;;;;;;;11.83;7.73;;;;;;;-2.57;100.00;101230.50;5051599;28;20119;-67
2023/12/14 01:09:30;;;;;;;13.47;8.17;;;;;;;-2.57;100.00;101232.28;5052556;28;20084;-67
2023/12/14 01:11:56;;;;;;;9.47;7.10;;;;;;;-2.65;100.00;101234.34;5052637;28;20072;-67
2023/12/14 01:14:21;;;;;;;13.80;7.33;;;;;;;-2.71;100.00;101230.25;5052197;28;20041;-69
2023/12/14 01:16:47;;;;;;;10.33;6.83;;;;;;;-2.52;100.00;101252.00;5052338;28;20033;-68
2023/12/14 01:19:13;;;;;;;12.67;8.47;;;;;;;-2.88;100.00;101176.25;5051406;28;20086;-69
2023/12/14 01:21:38;;;;;;;12.40;8.13;;;;;;;-2.47;100.00;101249.19;5051143;28;20045;-67
2023/12/14 01:24:04;;;;;;;11.43;7.57;;;;;;;-2.62;100.00;101226.38;5059907;28;20037;-67
2023/12/14 01:26:30;;;;;;;13.80;7.73;;;;;;;-2.71;100.00;101225.03;5059996;28;20123;-67
2023/12/14 01:28:55;;;;;;;13.33;7.93;;;;;;;-2.91;100.00;101202.44;5060460;28;20037;-69
2023/12/14 01:31:24;;;;;;;14.47;7.37;;;;;;;-2.71;100.00;101263.28;5064586;28;20119;-68
2023/12/14 01:33:50;;;;;;;12.73;7.35;;;;;;;-2.73;100.00;101236.44;5060517;28;20123;-69
2023/12/14 01:36:23;;;;;;;17.02;8.10;;;;;;;-2.62;100.00;101242.03;5061345;28;20067;-67
2023/12/14 01:38:49;;;;;;;10.35;8.20;;;;;;;-2.68;100.00;101243.16;5064620;28;20040;-66
2023/12/14 01:41:15;;;;;;;11.57;7.77;;;;;;;-2.75;100.00;101243.50;5063537;28;20044;-68
2023/12/14 01:43:40;;;;;;;21.00;7.23;;;;;;;-2.76;100.00;101254.84;5063841;28;20037;-68
2023/12/14 01:46:06;;;;;;;11.07;7.97;;;;;;;-2.70;100.00;101249.34;5061138;28;20040;-67
2023/12/14 01:48:32;;;;;;;22.67;9.13;;;;;;;-2.62;100.00;101257.66;5061810;28;20033;-65
2023/12/14 01:50:57;;;;;;;13.93;9.33;;;;;;;-2.72;100.00;101259.84;5057479;28;20550;-67
2023/12/14 01:53:23;;;;;;;10.70;6.67;;;;;;;-2.83;100.00;101249.88;5061126;28;20385;-67
2023/12/14 01:55:48;;;;;;;16.70;9.20;;;;;;;-2.78;100.00;101252.28;5062990;28;20041;-68
2023/12/14 01:58:14;;;;;;;9.93;7.37;;;;;;;-2.67;100.00;101262.25;5068513;28;20029;-67
2023/12/14 02:00:46;;;;;;;13.90;7.70;;;;;;;-2.59;100.00;101249.75;5066817;28;20037;-68
2023/12/14 02:03:12;;;;;;;14.52;7.28;;;;;;;-2.55;100.00;101253.91;5067217;28;20029;-66
2023/12/14 02:05:37;;;;;;;10.50;6.67;;;;;;;-2.54;100.00;101247.78;5067152;28;20037;-67
2023/12/14 02:08:07;;;;;;;9.60;7.50;;;;;;;-2.57;100.00;101237.50;5067760;28;20178;-68
2023/12/14 02:10:32;;;;;;;11.15;7.20;;;;;;;-2.52;100.00;101261.59;5065174;28;20151;-69
2023/12/14 02:12:58;;;;;;;16.73;8.00;;;;;;;-2.73;100.00;101226.88;5066418;28;20460;-67
2023/12/14 02:15:24;;;;;;;12.90;8.17;;;;;;;-2.69;100.00;101233.63;5068576;28;20033;-66
2023/12/14 02:17:49;;;;;;;10.83;7.90;;;;;;;-2.71;100.00;101263.28;5067360;28;20136;-68
2023/12/14 02:20:15;;;;;;;12.77;7.57;;;;;;;-2.79;100.00;101254.97;5066851;28;20044;-68
2023/12/14 02:22:54;;;;;;;9.97;7.10;;;;;;;-2.81;100.00;101247.22;5066565;28;20036;-67
2023/12/14 02:25:20;;;;;;;;;;;;;;;-2.67;100.00;101252.66;5068485;28;20040;-66
2023/12/14 02:27:46;;;;;;;14.23;8.43;;;;;;;-2.71;100.00;101250.25;5054046;28;19916;-67
2023/12/14 02:30:12;;;;;;;13.53;8.57;;;;;;;-2.79;100.00;101248.00;5051109;28;20039;-69
2023/12/14 02:32:39;;;;;;;13.20;9.52;;;;;;;-2.81;100.00;101245.44;5051365;28;20542;-67
2023/12/14 02:35:06;;;;;;;11.90;8.25;;;;;;;-2.90;100.00;101244.97;5051319;28;20090;-66
2023/12/14 02:37:32;;;;;;;14.70;9.38;;;;;;;-3.04;100.00;101221.28;5051281;28;20048;-69
2023/12/14 02:39:58;;;;;;;12.70;7.70;;;;;;;-2.95;100.00;101242.56;5050332;28;20098;-67
2023/12/14 02:42:23;;;;;;;15.43;8.48;;;;;;;-2.91;100.00;101249.34;5051428;28;20889;-68
2023/12/14 02:44:50;;;;;;;12.70;7.43;;;;;;;-2.99;100.00;101235.78;5050112;28;20132;-67
2023/12/14 02:47:16;;;;;;;12.68;8.15;;;;;;;-2.98;100.00;101241.84;5051301;28;20041;-68
2023/12/14 02:49:43;;;;;;;10.75;6.28;;;;;;;-2.94;100.00;101253.84;5051208;28;20451;-71
2023/12/14 02:52:09;;;;;;;16.48;7.03;;;;;;;-3.12;100.00;101230.25;5051362;28;20049;-67
2023/12/14 02:54:37;;;;;;;11.37;6.77;;;;;;;-2.96;100.00;101256.50;5049873;28;20036;-67
2023/12/14 02:57:03;;;;;;;11.48;7.15;;;;;;;-3.10;100.00;101238.03;5049911;28;20029;-67
2023/12/14 02:59:29;;;;;;;11.07;7.20;;;;;;;-3.04;100.00;101258.59;5050987;28;20036;-69
2023/12/14 03:01:54;;;;;;;9.50;7.17;;;;;;;-3.41;100.00;101193.31;5056124;28;20040;-66
2023/12/14 03:04:20;;;;;;;11.50;6.87;;;;;;;-3.18;100.00;101245.28;5054775;28;20108;-67
2023/12/14 03:06:46;;;;;;;12.33;6.90;;;;;;;-3.24;100.00;101232.50;5053606;28;20029;-67
2023/12/14 03:09:15;;;;;;;9.25;6.25;;;;;;;-3.11;100.00;101262.38;5050210;28;20076;-67
2023/12/14 03:11:40;;;;;;;17.83;7.50;;;;;;;-3.12;100.00;101252.88;5050954;28;20229;-67
2023/12/14 03:14:06;;;;;;;9.30;5.60;;;;;;;-3.06;100.00;101276.06;5051077;28;20096;-67
2023/12/14 03:16:32;;;;;;;9.27;6.13;;;;;;;-3.11;100.00;101267.59;5050826;28;20028;-72
2023/12/14 03:18:57;;;;;;;10.40;5.90;;;;;;;-2.95;100.00;101271.22;5050980;28;20120;-66
2023/12/14 03:21:23;;;;;;;10.33;6.80;;;;;;;-2.91;100.00;101280.63;5051777;28;20037;-66
2023/12/14 03:23:52;;;;;;;11.77;7.15;;;;;;;-3.12;100.00;101245.91;5054799;28;20669;-67
2023/12/14 03:26:18;;;;;;;10.70;7.18;;;;;;;-3.53;100.00;101187.69;5054277;28;20032;-69
2023/12/14 03:28:43;;;;;;;16.63;7.53;;;;;;;-3.18;100.00;101250.50;5053243;28;20167;-67
2023/12/14 03:31:12;;;;;;;9.43;6.73;;;;;;;-3.04;100.00;101278.59;5054031;28;20523;-68
2023/12/14 03:33:39;;;;;;;12.88;6.03;;;;;;;-3.16;100.00;101274.75;5054380;28;20077;-67
2023/12/14 03:36:05;;;;;;;11.77;5.88;;;;;;;-3.24;100.00;101262.00;5055023;28;20102;-68
2023/12/14 03:38:31;;;;;;;9.80;5.93;;;;;;;-3.17;100.00;101278.28;5054095;28;20093;-68
2023/12/14 03:40:57;;;;;;;10.50;6.20;;;;;;;-3.10;100.00;101282.31;5069483;28;20128;-66
2023/12/14 03:43:23;;;;;;;13.23;6.47;;;;;;;-3.11;100.00;101278.00;5053919;28;20120;-67
2023/12/14 03:45:49;;;;;;;12.10;6.13;;;;;;;-3.14;100.00;101279.00;5054180;28;20033;-67
2023/12/14 03:48:14;;;;;;;12.53;7.30;;;;;;;-3.10;100.00;101289.28;5052757;28;20508;-66
2023/12/14 03:50:40;;;;;;;14.43;7.13;;;;;;;-3.18;100.00;101271.34;5054154;28;20399;-68
2023/12/14 03:53:06;;;;;;;13.15;7.60;;;;;;;-3.10;100.00;101284.91;5054039;28;20082;-69
2023/12/14 03:55:33;;;;;;;11.98;6.63;;;;;;;-3.23;100.00;101257.66;5052721;28;20105;-68
2023/12/14 03:57:59;;;;;;;10.73;5.85;;;;;;;-3.11;100.00;101270.19;5052702;28;20047;-67
2023/12/14 04:00:24;;;;;;;14.23;7.27;;;;;;;-3.24;100.00;101266.38;5052548;28;20041;-67
2023/12/14 04:02:50;;;;;;;10.73;7.03;;;;;;;-3.22;100.00;101288.00;5053730;28;20107;-67
2023/12/14 04:05:15;;;;;;;9.47;6.13;;;;;;;-3.27;100.00;101292.56;5054076;28;20044;-67
2023/12/14 04:07:41;;;;;;;10.03;6.40;;;;;;;-3.25;100.00;101290.72;5052172;28;20029;-67
2023/12/14 04:10:08;;;;;;;14.50;7.63;;;;;;;-3.19;100.00;101295.69;5052734;28;20044;-67
2023/12/14 04:12:36;;;;;;;9.00;5.88;;;;;;;-3.34;100.00;101276.34;5052461;28;20045;-67
2023/12/14 04:15:02;;;;;;;11.60;6.22;;;;;;;-3.50;100.00;101260.47;5053215;28;20190;-71
2023/12/14 04:17:31;;;;;;;10.25;6.68;;;;;;;-3.54;100.00;101232.84;5053977;28;20025;-67
2023/12/14 04:19:57;;;;;;;12.53;7.40;;;;;;;-3.04;100.00;101295.09;5053445;28;20037;-66
2023/12/14 04:22:23;;;;;;;16.73;8.23;;;;;;;-3.36;100.00;101239.09;5053541;28;20052;-68
2023/12/14 04:24:50;;;;;;;12.63;7.30;;;;;;;-3.14;100.00;101301.59;5053584;28;20392;-67
2023/12/14 04:27:16;;;;;;;14.40;7.75;;;;;;;-3.51;100.00;101268.34;5053453;28;20547;-68
2023/12/14 04:29:41;;;;;;;14.17;7.03;;;;;;;-3.31;100.00;101285.78;5052079;28;20040;-67
2023/12/14 04:32:07;;;;;;;12.50;8.07;;;;;;;-3.13;100.00;101304.13;5052696;28;20036;-68
2023/12/14 04:34:33;;;;;;;10.00;7.03;;;;;;;-2.92;100.00;101302.38;5054720;28;20101;-67
2023/12/14 04:36:58;;;;;;;12.53;7.03;;;;;;;-2.85;100.00;101305.59;5054694;28;20377;-69
2023/12/14 04:39:24;;;;;;;17.40;7.33;;;;;;;-3.04;100.00;101268.19;5053671;28;20040;-67
2023/12/14 04:41:52;;;;;;;17.70;8.75;;;;;;;-3.02;100.00;101282.00;5051789;28;20128;-68
2023/12/14 04:44:18;;;;;;;12.23;6.72;;;;;;;-2.89;100.00;101304.88;5054616;28;20098;-68
2023/12/14 04:46:44;;;;;;;13.93;7.07;;;;;;;-3.08;100.00;101293.50;5053837;28;20059;-71
2023/12/14 04:49:09;;;;;;;13.53;8.10;;;;;;;-3.14;100.00;101283.34;5052944;28;20036;-67
2023/12/14 04:51:35;;;;;;;18.33;7.77;;;;;;;-3.22;100.00;101290.59;5034905;28;20047;-67
2023/12/14 04:54:01;;;;;;;14.40;7.20;;;;;;;-3.45;100.00;101268.97;5052930;28;20124;-69
2023/12/14 04:56:26;;;;;;;9.97;5.97;;;;;;;-3.32;100.00;101290.13;5053148;28;20040;-69
2023/12/14 04:58:52;;;;;;;12.53;6.57;;;;;;;-3.35;100.00;101299.84;5052764;28;20468;-71
2023/12/14 05:01:17;;;;;;;16.20;6.37;;;;;;;-3.48;100.00;101289.88;5052488;28;20036;-73
2023/12/14 05:03:43;;;;;;;14.83;7.77;;;;;;;-3.57;100.00;101273.78;5052324;28;20056;-74
2023/12/14 05:06:09;;;;;;;17.58;6.65;;;;;;;-3.38;100.00;101310.38;5067017;28;20099;-67
2023/12/14 05:08:35;;;;;;;12.97;7.47;;;;;;;-3.50;100.00;101285.66;5056536;28;20057;-68
2023/12/14 05:11:01;;;;;;;16.40;6.53;;;;;;;-3.46;100.00;101297.66;5051295;28;20044;-68
2023/12/14 05:13:26;;;;;;;10.77;6.90;;;;;;;-3.36;100.00;101313.75;5052135;28;20029;-68
2023/12/14 05:15:52;;;;;;;13.13;7.30;;;;;;;-3.46;100.00;101295.91;5052415;28;20033;-71
2023/12/14 05:18:18;;;;;;;12.17;6.40;;;;;;;-3.39;100.00;101316.50;5052260;28;20087;-68
2023/12/14 05:20:45;;;;;;;9.37;6.27;;;;;;;-3.64;100.00;101288.81;5052552;28;20043;-68
2023/12/14 05:23:12;;;;;;;14.00;6.32;;;;;;;-3.50;100.00;101315.13;5052152;28;20280;-69
2023/12/14 05:25:37;;;;;;;9.63;6.35;;;;;;;-3.58;100.00;101298.97;5052534;28;20037;-67
2023/12/14 05:28:03;;;;;;;15.60;7.70;;;;;;;-3.56;100.00;101304.13;5052148;28;20090;-67
2023/12/14 05:30:29;;;;;;;17.97;6.53;;;;;;;-3.63;100.00;101295.72;5055365;28;20036;-66
2023/12/14 05:32:55;;;;;;;12.13;6.95;;;;;;;-3.70;100.00;101296.84;5053709;28;20073;-68
2023/12/14 05:35:21;;;;;;;16.90;7.03;;;;;;;-3.55;100.00;101314.47;5051262;28;20080;-68
2023/12/14 05:37:47;;;;;;;13.70;7.07;;;;;;;-3.50;100.00;101333.38;5050800;28;20040;-69
2023/12/14 05:40:13;;;;;;;22.35;8.52;;;;;;;-3.58;100.00;101314.59;5052244;28;20040;-68
2023/12/14 05:42:38;;;;;;;13.60;7.13;;;;;;;-3.53;100.00;101333.47;5052194;28;20504;-67
2023/12/14 05:45:07;;;;;;;15.90;6.60;;;;;;;-3.42;100.00;101325.28;5051805;28;20127;-68
2023/12/14 05:47:34;;;;;;;;;;;;;;;-3.32;100.00;101336.19;5052624;28;20040;-68
2023/12/14 05:50:01;;;;;;;15.93;8.10;;;;;;;-3.52;100.00;101316.97;5050039;28;19916;-70
2023/12/14 05:52:26;;;;;;;17.08;7.95;;;;;;;-3.54;100.00;101341.34;5051147;28;20044;-67
2023/12/14 05:54:52;;;;;;;9.43;6.50;;;;;;;-3.61;100.00;101332.09;5051079;28;20083;-68
2023/12/14 05:57:17;;;;;;;13.23;6.63;;;;;;;-3.67;100.00;101329.72;5051542;28;20047;-68
2023/12/14 05:59:43;;;;;;;13.90;6.47;;;;;;;-3.68;100.00;101331.47;5052394;28;20410;-68
2023/12/14 06:02:09;;;;;;;17.40;6.90;;;;;;;-3.49;100.00;101355.88;5049773;28;20127;-64
2023/12/14 06:04:34;;;;;;;19.27;8.43;;;;;;;-3.59;100.00;101348.50;5050853;28;20068;-66
2023/12/14 06:07:00;;;;;;;13.53;6.60;;;;;;;-3.67;100.00;101353.16;5049799;28;20139;-66
2023/12/14 06:09:34;;;;;;;12.47;6.30;;;;;;;-3.67;100.00;101356.59;5050952;28;20084;-67
2023/12/14 06:12:04;;;;;;;15.60;7.15;;;;;;;-3.83;100.00;101339.84;5051022;28;20148;-71
2023/12/14 06:14:30;;;;;;;20.65;6.95;;;;;;;-3.72;100.00;101358.53;5046057;28;20483;-67
2023/12/14 06:16:56;;;;;;;13.63;7.13;;;;;;;-3.62;100.00;101364.25;5041762;28;20037;-66
2023/12/14 06:19:22;;;;;;;12.85;5.70;;;;;;;-3.60;100.00;101368.47;5037111;28;20107;-65
2023/12/14 06:21:48;;;;;;;14.37;6.70;;;;;;;-3.72;100.00;101358.53;5039770;28;20476;-68
2023/12/14 06:24:14;;;;;;;11.63;6.50;;;;;;;-3.68;100.00;101367.94;5051964;28;20041;-68
2023/12/14 06:26:45;;;;;;;23.52;6.32;;;;;;;-3.67;100.00;101363.56;5052088;28;20402;-67
2023/12/14 06:29:11;;;;;;;11.50;6.20;;;;;;;-3.75;100.00;101358.66;5052138;28;20060;-65
2023/12/14 06:31:38;;;;;;;25.95;9.52;;;;;;;-3.75;100.00;101363.88;5050705;28;20037;-67
2023/12/14 06:34:05;;;;;;;15.25;6.90;;;;;;;-3.85;100.00;101349.47;5050805;28;20040;-66
2023/12/14 06:36:31;;;;;;;11.43;5.97;;;;;;;-3.86;100.00;101355.59;5050901;28;20488;-66
2023/12/14 06:39:01;;;;;;;18.10;6.70;;;;;;;-3.77;100.00;101365.66;5052183;28;20040;-66
2023/12/14 06:41:28;;;;;;;15.95;6.05;;;;;;;-3.67;100.00;101355.75;5051119;28;20120;-68
2023/12/14 06:43:54;;;;;;;11.75;5.70;;;;;;;-3.68;100.00;101362.72;5050620;28;20088;-68
2023/12/14 06:46:20;;;;;;;13.18;6.63;;;;;;;-3.67;100.00;101371.38;5051406;28;20123;-68
2023/12/14 06:48:46;;;;;;;19.10;6.95;;;;;;;-3.60;100.00;101376.28;5051433;28;20033;-67
2023/12/14 06:51:12;;;;;;;23.70;7.82;;;;;;;-3.80;100.00;101368.38;5050913;28;20037;-66
2023/12/14 06:53:43;;;;;;;23.73;7.05;;;;;;;-3.71;100.00;101388.88;5051152;28;20040;-66
2023/12/14 06:56:10;;;;;;;19.42;8.93;;;;;;;-3.72;100.00;101388.94;5053231;28;20040;-70
2023/12/14 06:58:44;;;;;;;16.73;8.48;;;;;;;-3.85;100.00;101380.69;5055814;28;20033;-68
2023/12/14 07:01:14;;;;;;;11.55;6.20;;;;;;;-3.78;100.00;101392.56;5056227;28;20036;-69
2023/12/14 07:03:41;;;;;;;16.38;6.63;;;;;;;-3.84;100.00;101400.63;5054718;28;20032;-66
2023/12/14 07:06:11;;;;;;;18.77;7.53;;;;;;;-3.97;100.00;101386.38;5054523;28;20686;-67
2023/12/14 07:08:36;;;;;;;23.42;8.30;;;;;;;-4.06;100.00;101362.34;5053864;28;20052;-69
2023/12/14 07:11:04;;;;;;;12.65;7.75;;;;;;;-3.83;100.00;101382.34;5054510;28;20041;-68
2023/12/14 07:13:31;;;;;;;17.52;7.78;;;;;;;-3.63;100.00;101410.25;5054403;28;20052;-65
2023/12/14 07:15:56;;;;;;;14.20;6.22;;;;;;;-4.00;100.00;101343.09;5055330;28;20070;-70
2023/12/14 07:18:22;;;;;;;12.80;7.13;;;;;;;-3.59;100.00;101411.84;5053587;28;20041;-67
2023/12/14 07:20:48;;;;;;;14.47;5.83;;;;;;;-3.73;100.00;101397.63;5053696;28;20131;-70
2023/12/14 07:23:13;;;;;;;15.40;7.40;;;;;;;-4.10;100.00;101342.56;5054439;28;20430;-69
2023/12/14 07:25:39;;;;;;;15.77;6.53;;;;;;;-3.75;100.00;101405.50;5055200;28;20389;-70
2023/12/14 07:28:04;;;;;;;12.90;5.63;;;;;;;-3.80;100.00;101400.44;5065559;28;20039;-66
2023/12/14 07:30:30;;;;;;;12.40;7.40;;;;;;;-3.84;100.00;101400.63;5061822;28;20037;-69
2023/12/14 07:32:56;;;;;;;12.13;6.53;;;;;;;-3.80;100.00;101423.00;5047355;28;20079;-68
2023/12/14 07:35:23;;;;;;;23.87;9.63;;;;;;;-3.75;100.00;101421.13;5066041;28;20514;-69
2023/12/14 07:37:55;;;;;;;31.08;23.48;;;;;;;-3.79;100.00;101403.91;5064039;28;20048;-67
2023/12/14 07:40:20;;;;;;;22.77;13.23;;;;;;;-4.29;100.00;101341.53;5064594;28;20063;-67
2023/12/14 07:42:46;;;;;;;17.83;12.03;;;;;;;-3.73;100.00;101428.88;5073915;28;20033;-65
2023/12/14 07:45:12;;;;;;;32.40;18.63;;;;;;;-4.09;100.00;101359.00;5069584;28;20033;-66
2023/12/14 07:47:37;;;;;;;24.77;15.80;;;;;;;-3.69;100.00;101420.91;5069170;28;20084;-67
2023/12/14 07:50:05;;;;;;;17.60;7.63;;;;;;;-3.84;100.00;101393.66;5072802;28;20041;-65
2023/12/14 07:52:31;;;;;;;18.15;7.25;;;;;;;-4.01;100.00;101396.03;5075330;28;20044;-67
2023/12/14 07:54:57;;;;;;;16.27;7.70;;;;;;;-4.03;100.00;101405.66;5073555;28;20036;-69
2023/12/14 07:57:23;;;;;;;15.10;7.30;;;;;;;-3.96;100.00;101414.94;5069056;28;20036;-68
2023/12/14 07:59:49;;;;;;;24.38;9.43;;;;;;;-3.85;100.00;101430.16;5068063;28;20102;-69
2023/12/14 08:02:15;;;;;;;15.20;7.10;;;;;;;-3.97;100.00;101397.63;5068334;28;20048;-68
2023/12/14 08:05:21;;;;;;;11.47;6.87;;;;;;;-3.78;100.00;101434.22;5065273;28;20091;-70
2023/12/14 08:07:52;;;;;;;14.00;8.10;;;;;;;-3.94;100.00;101427.88;5055115;28;20037;-67
2023/12/14 08:10:19;;;;;;;21.02;8.07;;;;;;;-4.00;100.00;101408.13;5063364;28;20052;-69
2023/12/14 08:16:26;;;;;;;17.98;7.82;;;;;;;-3.89;100.00;101439.81;5061792;28;20044;-70
2023/12/14 08:18:51;;;;;;;18.20;7.78;;;;;;;-3.91;100.00;101441.63;5049146;28;20132;-70
2023/12/14 08:21:23;;;;;;;20.77;8.27;;;;;;;-4.01;100.00;101421.19;5056328;28;20057;-70
2023/12/14 08:23:49;;;;;;;17.85;8.18;;;;;;;-3.84;100.00;101452.66;5053360;28;20048;-67
2023/12/14 08:26:15;;;;;;;17.73;9.00;;;;;;;-4.07;100.00;101412.69;5054341;28;20041;-69
2023/12/14 08:28:41;;;;;;;17.23;7.83;;;;;;;-3.96;100.00;101432.28;5054921;28;20043;-71
2023/12/14 08:31:08;;;;;;;19.50;8.50;;;;;;;-3.83;100.00;101454.38;5052671;28;20512;-66
2023/12/14 08:33:34;;;;;;;15.93;9.35;;;;;;;-3.79;100.00;101445.53;5054148;28;20044;-71
2023/12/14 08:35:59;;;;;;;21.67;8.67;;;;;;;-3.75;100.00;101441.94;5053109;28;20511;-70
2023/12/14 08:38:28;;;;;;;18.90;8.67;;;;;;;-3.75;100.00;101462.78;5055174;28;20056;-68
2023/12/14 08:40:53;;;;;;;17.83;8.40;;;;;;;-3.77;100.00;101459.34;5061523;28;20071;-70
2023/12/14 08:43:19;;;;;;;28.17;8.03;;;;;;;-3.87;100.00;101447.56;5062185;28;20045;-73
2023/12/14 08:45:44;;;;;;;13.13;8.87;;;;;;;-4.04;100.00;101442.97;5062688;28;20025;-67
2023/12/14 08:48:10;;;;;;;19.97;9.07;;;;;;;-4.08;100.00;101429.19;5052180;28;20392;-68
2023/12/14 08:50:36;;;;;;;15.93;8.20;;;;;;;-3.83;100.00;101454.38;5052720;28;20086;-70
2023/12/14 08:53:01;;;;;;;16.53;8.10;;;;;;;-4.00;100.00;101439.34;5052030;28;20037;-70
2023/12/14 08:55:27;;;;;;;19.33;9.10;;;;;;;-3.79;100.00;101466.34;5051555;28;20029;-68
2023/12/14 08:57:53;;;;;;;17.80;7.90;;;;;;;-4.02;100.00;101433.38;5051918;28;20737;-73
2023/12/14 09:00:19;;;;;;;18.87;9.37;;;;;;;-3.87;100.00;101452.78;5052269;28;20491;-70
2023/12/14 09:02:45;;;;;;;19.13;7.87;;;;;;;-3.75;100.00;101462.78;5052385;28;21090;-70
2023/12/14 09:05:12;;;;;;;22.02;8.38;;;;;;;-3.65;100.00;101466.72;5052331;28;20388;-70
2023/12/14 09:07:38;;;;;;;21.27;8.65;;;;;;;-3.62;100.00;101471.81;5051828;28;20044;-70
2023/12/14 09:10:07;;;;;;;18.83;9.07;;;;;;;-3.70;100.00;101434.81;5052157;28;20061;-70
2023/12/14 09:12:34;;;;;;;14.93;7.55;;;;;;;-3.84;100.00;101390.19;5051264;28;20186;-71
2023/12/14 09:15:15;;;;;;;19.10;10.17;;;;;;;-4.10;100.00;101363.38;5093184;27;1368514;-71
2023/12/14 09:17:44;;;;;;;20.55;7.15;;;;;;;-3.84;100.00;101427.50;5122277;28;20046;-71
2023/12/14 09:20:11;;;;;;;19.27;8.93;;;;;;;-4.87;100.00;101250.00;5122164;28;20129;-70
2023/12/14 09:22:40;;;;;;;15.23;8.02;;;;;;;-4.39;100.00;101350.53;5108610;28;20570;-69
2023/12/14 09:25:06;;;;;;;;;;;;;;;-3.64;100.00;101473.63;5109088;28;20084;-72
2023/12/14 09:27:32;;;;;;;23.90;9.03;;;;;;;-4.78;100.00;101273.03;5118223;27;19915;-71
2023/12/14 09:29:57;;;;;;;26.63;9.30;;;;;;;-4.62;100.00;101314.13;5122162;27;20288;-73
2023/12/14 09:32:23;;;;;;;30.77;10.90;;;;;;;-4.34;100.00;101369.44;5119950;28;20039;-71
2023/12/14 09:34:51;;;;;;;22.17;8.97;;;;;;;-3.86;100.00;101438.84;5116335;28;20034;-71
2023/12/14 09:37:17;;;;;;;21.40;9.27;;;;;;;-4.09;100.00;101396.28;5120427;28;20073;-70
2023/12/14 09:39:43;;;;;;;23.60;9.00;;;;;;;-3.62;100.00;101453.59;5117195;28;20083;-72
2023/12/14 09:42:09;;;;;;;18.63;9.97;;;;;;;-3.47;100.00;101473.00;5120428;27;20114;-69
2023/12/14 09:44:37;;;;;;;23.38;9.68;;;;;;;-3.45;100.00;101471.22;5120759;27;20061;-73
2023/12/14 09:47:02;;;;;;;23.05;9.48;;;;;;;-3.50;100.00;101455.75;5115086;27;20055;-73
2023/12/14 09:49:32;;;;;;;18.47;8.63;;;;;;;-3.42;100.00;101475.47;5119776;28;20031;-70
2023/12/14 09:51:58;;;;;;;19.88;8.40;;;;;;;-3.57;100.00;101435.22;5118501;27;20574;-71
2023/12/14 09:54:27;;;;;;;18.83;9.50;;;;;;;-3.32;100.00;101453.38;5120008;27;20410;-69
2023/12/14 09:56:53;;;;;;;;;;;;;;;-3.16;100.00;101472.75;5129085;27;20043;-70
2023/12/14 09:59:19;;;;;;;17.80;7.60;;;;;;;-3.22;100.00;101468.59;5129024;27;20060;-71
2023/12/14 10:01:46;;;;;;;14.98;8.63;;;;;;;-3.34;100.00;101463.84;5128954;27;20138;-72
2023/12/14 10:04:16;;;;;;;18.98;8.30;;;;;;;-3.68;100.00;101400.91;5128777;27;20035;-70
2023/12/14 10:06:45;;;;;;;15.77;8.00;;;;;;;-3.13;100.00;101485.66;5127579;28;20126;-69
2023/12/14 10:09:15;;;;;;;16.05;8.60;;;;;;;-2.99;100.00;101478.16;5127406;28;20044;-71
2023/12/14 10:11:42;;;;;;;22.92;8.77;;;;;;;-2.86;100.00;101471.56;5128327;27;20076;-74
2023/12/14 10:14:21;;;;;;;15.95;9.68;;;;;;;-2.66;100.00;101462.09;5128427;27;20444;-72
2023/12/14 10:16:49;;;;;;;19.17;8.40;;;;;;;-2.49;100.00;101488.38;5128326;27;20051;-71
2023/12/14 10:19:17;;;;;;;20.85;8.88;;;;;;;-2.84;100.00;101443.69;5128535;27;20377;-71
2023/12/14 10:21:42;;;;;;;22.58;10.05;;;;;;;-2.81;100.00;101463.56;5128511;27;20593;-73
2023/12/14 10:24:08;;;;;;;16.63;8.53;;;;;;;-2.81;100.00;101464.41;5128424;27;20138;-72
2023/12/14 10:26:34;;;;;;;19.93;7.97;;;;;;;-2.76;100.00;101461.63;5116223;28;20041;-70
2023/12/14 10:29:00;;;;;;;18.53;8.93;;;;;;;-2.69;100.00;101473.50;5114087;28;20047;-70
2023/12/14 10:31:26;;;;;;;21.40;8.60;;;;;;;-2.58;100.00;101493.97;5113344;28;20428;-68
2023/12/14 10:33:51;;;;;;;23.30;8.15;;;;;;;-2.89;100.00;101445.63;5114566;28;20031;-69
2023/12/14 10:36:24;;;;;;;27.90;10.40;;;;;;;-3.13;100.00;101443.97;5114582;28;20081;-70
2023/12/14 10:38:53;;;;;;;17.60;8.40;;;;;;;-3.04;100.00;101476.63;5114229;28;20042;-71
2023/12/14 10:41:21;;;;;;;21.00;9.40;;;;;;;-3.11;100.00;101465.59;5114027;28;20417;-72
2023/12/14 10:43:48;;;;;;;24.50;8.90;;;;;;;-3.15;100.00;101466.63;5113153;28;20028;-70
2023/12/14 10:46:14;;;;;;;25.63;8.65;;;;;;;-3.31;100.00;101448.13;5114632;28;20327;-70
2023/12/14 10:48:42;;;;;;;24.60;9.60;;;;;;;-3.37;100.00;101463.97;5114470;28;20066;-70
2023/12/14 10:51:08;;;;;;;20.65;8.65;;;;;;;-3.49;100.00;101457.44;5113782;28;20586;-75
2023/12/14 10:53:35;;;;;;;22.60;9.68;;;;;;;-3.78;100.00;101429.88;5114154;28;20387;-71
2023/12/14 10:56:07;;;;;;;27.42;9.82;;;;;;;-3.68;100.00;101443.41;5112729;28;20077;-69
2023/12/14 10:58:53;;;;;;;24.25;10.95;;;;;;;-3.59;100.00;101457.84;5114276;28;20118;-70
2023/12/14 11:01:21;;;;;;;23.88;10.20;;;;;;;-3.61;100.00;101463.09;5114152;27;20530;-70
2023/12/14 11:03:49;;;;;;;22.90;11.52;;;;;;;-3.87;100.00;101405.94;5113827;27;20032;-70
2023/12/14 11:06:37;;;;;;;19.52;10.30;;;;;;;-3.38;100.00;101482.25;5112371;28;20083;-72
2023/12/14 11:09:10;;;;;;;20.38;9.90;;;;;;;-3.45;100.00;101487.69;5113624;28;20036;-72
2023/12/14 11:11:48;;;;;;;20.02;10.93;;;;;;;-3.60;100.00;101462.19;5113616;28;20117;-70